<?xml version="1.0" encoding="UTF-8" standalone="no" ?>
<gpx xmlns="http://www.topografix.com/GPX/1/1" xmlns:xsi="http://www.w3.org/2001/XMLSchema-instance" xsi:schemaLocation="http://www.topografix.com/GPX/1/1 http://www.topografix.com/GPX/1/1/gpx.xsd" version="1.1" creator="VisuGPX - https://www.visugpx.com">
  <metadata>
    <name>2020-01-26 17:42:43</name>
    <desc><![CDATA[Au départ des Gauchets, randonnée vers Les  Plâtres en passant par le pond de l'amour et la cascade de la Fauge.
]]></desc>
  </metadata>
  <trk>
    <name><![CDATA[2020-01-26 17:42:43]]></name>
    <trkseg>
      <trkpt lat="45.06455" lon="5.5563">
        <ele>1047</ele>
      </trkpt>
      <trkpt lat="45.06442" lon="5.5565">
        <ele>1049</ele>
      </trkpt>
      <trkpt lat="45.06436" lon="5.55663">
        <ele>1050</ele>
      </trkpt>
      <trkpt lat="45.06428" lon="5.55679">
        <ele>1051</ele>
      </trkpt>
      <trkpt lat="45.06407" lon="5.55692">
        <ele>1059.4</ele>
      </trkpt>
      <trkpt lat="45.06396" lon="5.55709">
        <ele>1060</ele>
      </trkpt>
      <trkpt lat="45.06388" lon="5.55724">
        <ele>1061</ele>
      </trkpt>
      <trkpt lat="45.06376" lon="5.55748">
        <ele>1062</ele>
      </trkpt>
      <trkpt lat="45.06362" lon="5.55771">
        <ele>1064</ele>
      </trkpt>
      <trkpt lat="45.06349" lon="5.55771">
        <ele>1065.7</ele>
      </trkpt>
      <trkpt lat="45.06338" lon="5.5576">
        <ele>1064.3199462891</ele>
        <time>2020-01-26T13:04:39Z</time>
      </trkpt>
      <trkpt lat="45.06332" lon="5.55769">
        <ele>1064.8000488281</ele>
        <time>2020-01-26T13:04:49Z</time>
      </trkpt>
      <trkpt lat="45.06329" lon="5.55783">
        <ele>1064.8000488281</ele>
        <time>2020-01-26T13:04:59Z</time>
      </trkpt>
      <trkpt lat="45.0633" lon="5.55797">
        <ele>1065.2800292969</ele>
        <time>2020-01-26T13:05:09Z</time>
      </trkpt>
      <trkpt lat="45.06332" lon="5.55809">
        <ele>1065.2800292969</ele>
        <time>2020-01-26T13:05:19Z</time>
      </trkpt>
      <trkpt lat="45.06334" lon="5.55823">
        <ele>1066.2399902344</ele>
        <time>2020-01-26T13:05:31Z</time>
      </trkpt>
      <trkpt lat="45.06328" lon="5.55834">
        <ele>1067.1999511719</ele>
        <time>2020-01-26T13:05:43Z</time>
      </trkpt>
      <trkpt lat="45.06321" lon="5.55851">
        <ele>1068.1600341797</ele>
        <time>2020-01-26T13:05:58Z</time>
      </trkpt>
      <trkpt lat="45.06314" lon="5.55861">
        <ele>1068.6400146484</ele>
        <time>2020-01-26T13:06:09Z</time>
      </trkpt>
      <trkpt lat="45.06305" lon="5.55866">
        <ele>1069.5999755859</ele>
        <time>2020-01-26T13:06:22Z</time>
      </trkpt>
      <trkpt lat="45.06299" lon="5.55854">
        <ele>1070.5699462891</ele>
        <time>2020-01-26T13:06:35Z</time>
      </trkpt>
      <trkpt lat="45.06292" lon="5.55854">
        <ele>1071.0500488281</ele>
        <time>2020-01-26T13:06:46Z</time>
      </trkpt>
      <trkpt lat="45.06293" lon="5.55869">
        <ele>1072.0100097656</ele>
        <time>2020-01-26T13:07:09Z</time>
      </trkpt>
      <trkpt lat="45.06298" lon="5.55884">
        <ele>1072.0100097656</ele>
        <time>2020-01-26T13:07:23Z</time>
      </trkpt>
      <trkpt lat="45.06299" lon="5.55899">
        <ele>1073.4499511719</ele>
        <time>2020-01-26T13:07:37Z</time>
      </trkpt>
      <trkpt lat="45.06298" lon="5.55915">
        <ele>1076.3299560547</ele>
        <time>2020-01-26T13:07:54Z</time>
      </trkpt>
      <trkpt lat="45.06297" lon="5.55927">
        <ele>1076.3299560547</ele>
        <time>2020-01-26T13:08:15Z</time>
      </trkpt>
      <trkpt lat="45.06294" lon="5.55943">
        <ele>1079.2199707031</ele>
        <time>2020-01-26T13:08:30Z</time>
      </trkpt>
      <trkpt lat="45.06293" lon="5.55958">
        <ele>1081.1400146484</ele>
        <time>2020-01-26T13:08:45Z</time>
      </trkpt>
      <trkpt lat="45.0629" lon="5.5598">
        <ele>1084.0200195312</ele>
        <time>2020-01-26T13:09:18Z</time>
      </trkpt>
      <trkpt lat="45.06287" lon="5.55995">
        <ele>1084.9899902344</ele>
        <time>2020-01-26T13:09:31Z</time>
      </trkpt>
      <trkpt lat="45.06284" lon="5.56015">
        <ele>1086.9100341797</ele>
        <time>2020-01-26T13:09:50Z</time>
      </trkpt>
      <trkpt lat="45.06277" lon="5.56046">
        <ele>1095</ele>
      </trkpt>
      <trkpt lat="45.06287" lon="5.56072">
        <ele>1095</ele>
      </trkpt>
      <trkpt lat="45.06294" lon="5.56107">
        <ele>1100.8</ele>
      </trkpt>
      <trkpt lat="45.06293" lon="5.56131">
        <ele>1102</ele>
      </trkpt>
      <trkpt lat="45.06292" lon="5.5616">
        <ele>1103.6</ele>
      </trkpt>
      <trkpt lat="45.06282" lon="5.5619">
        <ele>1111</ele>
      </trkpt>
      <trkpt lat="45.06274" lon="5.56219">
        <ele>1113</ele>
      </trkpt>
      <trkpt lat="45.06268" lon="5.56248">
        <ele>1119.4</ele>
      </trkpt>
      <trkpt lat="45.06264" lon="5.56287">
        <ele>1116</ele>
      </trkpt>
      <trkpt lat="45.06261" lon="5.56325">
        <ele>1121</ele>
      </trkpt>
      <trkpt lat="45.0626" lon="5.56358">
        <ele>1117</ele>
      </trkpt>
      <trkpt lat="45.06255" lon="5.56402">
        <ele>1119</ele>
      </trkpt>
      <trkpt lat="45.06253" lon="5.56443">
        <ele>1118</ele>
      </trkpt>
      <trkpt lat="45.0625" lon="5.56478">
        <ele>1119</ele>
      </trkpt>
      <trkpt lat="45.06246" lon="5.56534">
        <ele>1136.7</ele>
      </trkpt>
      <trkpt lat="45.06219" lon="5.56639">
        <ele>1100.3699951172</ele>
        <time>2020-01-26T13:30:56Z</time>
      </trkpt>
      <trkpt lat="45.06199" lon="5.56663">
        <ele>1101.3299560547</ele>
        <time>2020-01-26T13:31:46Z</time>
      </trkpt>
      <trkpt lat="45.06179" lon="5.56731">
        <ele>1102.7700195312</ele>
        <time>2020-01-26T13:35:32Z</time>
      </trkpt>
      <trkpt lat="45.06165" lon="5.56731">
        <ele>1103.25</ele>
        <time>2020-01-26T13:37:12Z</time>
      </trkpt>
      <trkpt lat="45.06104" lon="5.56797">
        <ele>1112.3800048828</ele>
        <time>2020-01-26T13:39:57Z</time>
      </trkpt>
      <trkpt lat="45.06085" lon="5.56816">
        <ele>1116.7099609375</ele>
        <time>2020-01-26T13:40:49Z</time>
      </trkpt>
      <trkpt lat="45.06083" lon="5.56807">
        <ele>1115.75</ele>
        <time>2020-01-26T13:41:59Z</time>
      </trkpt>
      <trkpt lat="45.05977" lon="5.56923">
        <ele>1136.9000244141</ele>
        <time>2020-01-26T13:47:53Z</time>
      </trkpt>
      <trkpt lat="45.05908" lon="5.57061">
        <ele>1144.1099853516</ele>
        <time>2020-01-26T13:51:21Z</time>
      </trkpt>
      <trkpt lat="45.05868" lon="5.571">
        <ele>1150.3499755859</ele>
        <time>2020-01-26T13:55:46Z</time>
      </trkpt>
      <trkpt lat="45.0583" lon="5.57126">
        <ele>1155.1600341797</ele>
        <time>2020-01-26T13:56:36Z</time>
      </trkpt>
      <trkpt lat="45.05819" lon="5.57158">
        <ele>1158.0500488281</ele>
        <time>2020-01-26T13:57:14Z</time>
      </trkpt>
      <trkpt lat="45.05809" lon="5.57218">
        <ele>1158.5300292969</ele>
        <time>2020-01-26T13:58:00Z</time>
      </trkpt>
      <trkpt lat="45.05808" lon="5.57232">
        <ele>1158.5300292969</ele>
        <time>2020-01-26T13:58:10Z</time>
      </trkpt>
      <trkpt lat="45.05811" lon="5.57249">
        <ele>1158.5300292969</ele>
        <time>2020-01-26T13:58:26Z</time>
      </trkpt>
      <trkpt lat="45.05854" lon="5.57446">
        <ele>1167.1800537109</ele>
        <time>2020-01-26T14:01:06Z</time>
      </trkpt>
      <trkpt lat="45.05851" lon="5.57496">
        <ele>1209</ele>
      </trkpt>
      <trkpt lat="45.05859" lon="5.57552">
        <ele>1217</ele>
      </trkpt>
      <trkpt lat="45.05811" lon="5.57607">
        <ele>1231</ele>
      </trkpt>
      <trkpt lat="45.05776" lon="5.57672">
        <ele>1236</ele>
      </trkpt>
      <trkpt lat="45.05748" lon="5.57674">
        <ele>1223.4200439453</ele>
        <time>2020-01-26T14:25:37Z</time>
      </trkpt>
      <trkpt lat="45.05685" lon="5.57671">
        <ele>1233.5100097656</ele>
        <time>2020-01-26T14:29:16Z</time>
      </trkpt>
      <trkpt lat="45.05658" lon="5.57701">
        <ele>1229.1800537109</ele>
        <time>2020-01-26T14:30:11Z</time>
      </trkpt>
      <trkpt lat="45.05614" lon="5.57779">
        <ele>1222.4499511719</ele>
        <time>2020-01-26T14:32:25Z</time>
      </trkpt>
      <trkpt lat="45.05678" lon="5.57867">
        <ele>1242</ele>
      </trkpt>
      <trkpt lat="45.05735" lon="5.57867">
        <ele>1243.1</ele>
      </trkpt>
      <trkpt lat="45.058" lon="5.57829">
        <ele>1226.3000488281</ele>
        <time>2020-01-26T14:41:04Z</time>
      </trkpt>
      <trkpt lat="45.05897" lon="5.57768">
        <ele>1234.4699707031</ele>
        <time>2020-01-26T14:43:58Z</time>
      </trkpt>
      <trkpt lat="45.05908" lon="5.57746">
        <ele>1233.9899902344</ele>
        <time>2020-01-26T14:46:56Z</time>
      </trkpt>
      <trkpt lat="45.0592" lon="5.57738">
        <ele>1235.9100341797</ele>
        <time>2020-01-26T14:47:14Z</time>
      </trkpt>
      <trkpt lat="45.05946" lon="5.577">
        <ele>1240.7199707031</ele>
        <time>2020-01-26T14:48:01Z</time>
      </trkpt>
      <trkpt lat="45.05904" lon="5.57854">
        <ele>1281</ele>
      </trkpt>
      <trkpt lat="45.05752" lon="5.58109">
        <ele>1319.0699462891</ele>
        <time>2020-01-26T15:05:05Z</time>
      </trkpt>
      <trkpt lat="45.05719" lon="5.58142">
        <ele>1326.7600097656</ele>
        <time>2020-01-26T15:06:06Z</time>
      </trkpt>
      <trkpt lat="45.05709" lon="5.58234">
        <ele>1347</ele>
      </trkpt>
      <trkpt lat="45.0573" lon="5.58312">
        <ele>1339.7299804688</ele>
        <time>2020-01-26T15:25:31Z</time>
      </trkpt>
      <trkpt lat="45.05743" lon="5.58309">
        <ele>1339.25</ele>
        <time>2020-01-26T15:25:43Z</time>
      </trkpt>
      <trkpt lat="45.05757" lon="5.58308">
        <ele>1339.25</ele>
        <time>2020-01-26T15:25:55Z</time>
      </trkpt>
      <trkpt lat="45.05769" lon="5.58302">
        <ele>1339.25</ele>
        <time>2020-01-26T15:26:14Z</time>
      </trkpt>
      <trkpt lat="45.05777" lon="5.58296">
        <ele>1339.25</ele>
        <time>2020-01-26T15:26:25Z</time>
      </trkpt>
      <trkpt lat="45.05785" lon="5.58287">
        <ele>1339.25</ele>
        <time>2020-01-26T15:26:35Z</time>
      </trkpt>
      <trkpt lat="45.05796" lon="5.58282">
        <ele>1339.25</ele>
        <time>2020-01-26T15:26:48Z</time>
      </trkpt>
      <trkpt lat="45.05808" lon="5.58273">
        <ele>1337.3299560547</ele>
        <time>2020-01-26T15:27:02Z</time>
      </trkpt>
      <trkpt lat="45.05819" lon="5.58266">
        <ele>1336.8499755859</ele>
        <time>2020-01-26T15:27:12Z</time>
      </trkpt>
      <trkpt lat="45.05832" lon="5.58259">
        <ele>1335.8900146484</ele>
        <time>2020-01-26T15:27:26Z</time>
      </trkpt>
      <trkpt lat="45.05858" lon="5.58243">
        <ele>1333.9699707031</ele>
        <time>2020-01-26T15:27:58Z</time>
      </trkpt>
      <trkpt lat="45.0587" lon="5.58235">
        <ele>1332.0400390625</ele>
        <time>2020-01-26T15:28:11Z</time>
      </trkpt>
      <trkpt lat="45.05884" lon="5.58221">
        <ele>1329.6400146484</ele>
        <time>2020-01-26T15:28:28Z</time>
      </trkpt>
      <trkpt lat="45.05895" lon="5.5821">
        <ele>1326.2800292969</ele>
        <time>2020-01-26T15:28:46Z</time>
      </trkpt>
      <trkpt lat="45.05912" lon="5.58189">
        <ele>1322.4300537109</ele>
        <time>2020-01-26T15:29:16Z</time>
      </trkpt>
      <trkpt lat="45.05923" lon="5.58176">
        <ele>1320.0300292969</ele>
        <time>2020-01-26T15:29:34Z</time>
      </trkpt>
      <trkpt lat="45.05948" lon="5.58154">
        <ele>1317.1400146484</ele>
        <time>2020-01-26T15:30:04Z</time>
      </trkpt>
      <trkpt lat="45.05955" lon="5.58143">
        <ele>1314.7399902344</ele>
        <time>2020-01-26T15:30:16Z</time>
      </trkpt>
      <trkpt lat="45.05964" lon="5.58125">
        <ele>1312.3399658203</ele>
        <time>2020-01-26T15:31:01Z</time>
      </trkpt>
      <trkpt lat="45.05974" lon="5.5812">
        <ele>1311.3800048828</ele>
        <time>2020-01-26T15:31:16Z</time>
      </trkpt>
      <trkpt lat="45.05983" lon="5.58114">
        <ele>1310.4100341797</ele>
        <time>2020-01-26T15:31:26Z</time>
      </trkpt>
      <trkpt lat="45.05992" lon="5.58108">
        <ele>1308.4899902344</ele>
        <time>2020-01-26T15:31:36Z</time>
      </trkpt>
      <trkpt lat="45.06023" lon="5.58063">
        <ele>1304.1700439453</ele>
        <time>2020-01-26T15:32:19Z</time>
      </trkpt>
      <trkpt lat="45.06056" lon="5.57994">
        <ele>1295.5100097656</ele>
        <time>2020-01-26T15:33:36Z</time>
      </trkpt>
      <trkpt lat="45.06104" lon="5.57948">
        <ele>1291.1899414062</ele>
        <time>2020-01-26T15:34:40Z</time>
      </trkpt>
      <trkpt lat="45.06139" lon="5.57911">
        <ele>1287.8199462891</ele>
        <time>2020-01-26T15:35:24Z</time>
      </trkpt>
      <trkpt lat="45.06199" lon="5.57826">
        <ele>1279.1700439453</ele>
        <time>2020-01-26T15:37:42Z</time>
      </trkpt>
      <trkpt lat="45.06213" lon="5.57812">
        <ele>1276.2900390625</ele>
        <time>2020-01-26T15:38:06Z</time>
      </trkpt>
      <trkpt lat="45.06231" lon="5.57739">
        <ele>1269.5600585938</ele>
        <time>2020-01-26T15:40:10Z</time>
      </trkpt>
      <trkpt lat="45.06281" lon="5.57715">
        <ele>1265.2299804688</ele>
        <time>2020-01-26T15:41:08Z</time>
      </trkpt>
      <trkpt lat="45.06301" lon="5.577">
        <ele>1263.7900390625</ele>
        <time>2020-01-26T15:41:38Z</time>
      </trkpt>
      <trkpt lat="45.06331" lon="5.57679">
        <ele>1261.8699951172</ele>
        <time>2020-01-26T15:42:23Z</time>
      </trkpt>
      <trkpt lat="45.06345" lon="5.57672">
        <ele>1259.9399414062</ele>
        <time>2020-01-26T15:42:38Z</time>
      </trkpt>
      <trkpt lat="45.06355" lon="5.57664">
        <ele>1258.9799804688</ele>
        <time>2020-01-26T15:42:50Z</time>
      </trkpt>
      <trkpt lat="45.06364" lon="5.57657">
        <ele>1258.5</ele>
        <time>2020-01-26T15:43:01Z</time>
      </trkpt>
      <trkpt lat="45.06373" lon="5.57649">
        <ele>1257.5400390625</ele>
        <time>2020-01-26T15:43:13Z</time>
      </trkpt>
      <trkpt lat="45.06381" lon="5.5764">
        <ele>1256.5799560547</ele>
        <time>2020-01-26T15:43:25Z</time>
      </trkpt>
      <trkpt lat="45.06391" lon="5.57632">
        <ele>1256.0999755859</ele>
        <time>2020-01-26T15:43:39Z</time>
      </trkpt>
      <trkpt lat="45.06402" lon="5.57625">
        <ele>1254.6600341797</ele>
        <time>2020-01-26T15:43:51Z</time>
      </trkpt>
      <trkpt lat="45.06413" lon="5.57624">
        <ele>1252.7399902344</ele>
        <time>2020-01-26T15:48:07Z</time>
      </trkpt>
      <trkpt lat="45.0643" lon="5.57593">
        <ele>1247.9300537109</ele>
        <time>2020-01-26T15:49:00Z</time>
      </trkpt>
      <trkpt lat="45.06443" lon="5.57574">
        <ele>1245.0400390625</ele>
        <time>2020-01-26T15:49:24Z</time>
      </trkpt>
      <trkpt lat="45.06466" lon="5.57516">
        <ele>1234.4699707031</ele>
        <time>2020-01-26T15:50:36Z</time>
      </trkpt>
      <trkpt lat="45.06479" lon="5.57487">
        <ele>1230.6199951172</ele>
        <time>2020-01-26T15:51:04Z</time>
      </trkpt>
      <trkpt lat="45.06514" lon="5.57401">
        <ele>1219.0899658203</ele>
        <time>2020-01-26T15:53:00Z</time>
      </trkpt>
      <trkpt lat="45.06529" lon="5.57367">
        <ele>1214.2800292969</ele>
        <time>2020-01-26T15:53:29Z</time>
      </trkpt>
      <trkpt lat="45.06577" lon="5.57182">
        <ele>1180.1600341797</ele>
        <time>2020-01-26T15:56:28Z</time>
      </trkpt>
      <trkpt lat="45.06614" lon="5.57179">
        <ele>1169.5799560547</ele>
        <time>2020-01-26T15:57:30Z</time>
      </trkpt>
      <trkpt lat="45.06603" lon="5.57062">
        <ele>1151.8000488281</ele>
        <time>2020-01-26T16:00:47Z</time>
      </trkpt>
      <trkpt lat="45.06595" lon="5.57034">
        <ele>1148.4300537109</ele>
        <time>2020-01-26T16:01:08Z</time>
      </trkpt>
      <trkpt lat="45.06589" lon="5.57018">
        <ele>1146.0300292969</ele>
        <time>2020-01-26T16:01:20Z</time>
      </trkpt>
      <trkpt lat="45.06584" lon="5.57004">
        <ele>1144.1099853516</ele>
        <time>2020-01-26T16:01:30Z</time>
      </trkpt>
      <trkpt lat="45.06581" lon="5.56989">
        <ele>1142.1800537109</ele>
        <time>2020-01-26T16:01:41Z</time>
      </trkpt>
      <trkpt lat="45.06576" lon="5.56939">
        <ele>1137.3800048828</ele>
        <time>2020-01-26T16:02:16Z</time>
      </trkpt>
      <trkpt lat="45.06568" lon="5.56877">
        <ele>1130.6500244141</ele>
        <time>2020-01-26T16:02:58Z</time>
      </trkpt>
      <trkpt lat="45.06569" lon="5.56859">
        <ele>1128.7299804688</ele>
        <time>2020-01-26T16:03:11Z</time>
      </trkpt>
      <trkpt lat="45.06567" lon="5.56841">
        <ele>1126.8000488281</ele>
        <time>2020-01-26T16:03:23Z</time>
      </trkpt>
      <trkpt lat="45.06564" lon="5.56822">
        <ele>1123.9200439453</ele>
        <time>2020-01-26T16:03:37Z</time>
      </trkpt>
      <trkpt lat="45.06552" lon="5.56724">
        <ele>1113.3399658203</ele>
        <time>2020-01-26T16:05:08Z</time>
      </trkpt>
      <trkpt lat="45.06565" lon="5.56708">
        <ele>1112.3800048828</ele>
        <time>2020-01-26T16:05:24Z</time>
      </trkpt>
      <trkpt lat="45.06581" lon="5.56671">
        <ele>1110.9399414062</ele>
        <time>2020-01-26T16:06:40Z</time>
      </trkpt>
      <trkpt lat="45.06564" lon="5.56657">
        <ele>1113.8199462891</ele>
        <time>2020-01-26T16:08:18Z</time>
      </trkpt>
      <trkpt lat="45.06551" lon="5.5665">
        <ele>1115.75</ele>
        <time>2020-01-26T16:08:38Z</time>
      </trkpt>
      <trkpt lat="45.06529" lon="5.56642">
        <ele>1120.5500488281</ele>
        <time>2020-01-26T16:09:15Z</time>
      </trkpt>
      <trkpt lat="45.0651" lon="5.56639">
        <ele>1121.5200195312</ele>
        <time>2020-01-26T16:09:33Z</time>
      </trkpt>
      <trkpt lat="45.06499" lon="5.56639">
        <ele>1122.9599609375</ele>
        <time>2020-01-26T16:09:46Z</time>
      </trkpt>
      <trkpt lat="45.06488" lon="5.56636">
        <ele>1123.9200439453</ele>
        <time>2020-01-26T16:09:59Z</time>
      </trkpt>
      <trkpt lat="45.0648" lon="5.56631">
        <ele>1124.8800048828</ele>
        <time>2020-01-26T16:10:14Z</time>
      </trkpt>
      <trkpt lat="45.06471" lon="5.56617">
        <ele>1125.8399658203</ele>
        <time>2020-01-26T16:10:33Z</time>
      </trkpt>
      <trkpt lat="45.06463" lon="5.56605">
        <ele>1124.8800048828</ele>
        <time>2020-01-26T16:11:32Z</time>
      </trkpt>
      <trkpt lat="45.0647" lon="5.56594">
        <ele>1123.9200439453</ele>
        <time>2020-01-26T16:11:53Z</time>
      </trkpt>
      <trkpt lat="45.0648" lon="5.56575">
        <ele>1123.4399414062</ele>
        <time>2020-01-26T16:12:12Z</time>
      </trkpt>
      <trkpt lat="45.06489" lon="5.56564">
        <ele>1124.4000244141</ele>
        <time>2020-01-26T16:12:24Z</time>
      </trkpt>
      <trkpt lat="45.06496" lon="5.56554">
        <ele>1125.3599853516</ele>
        <time>2020-01-26T16:12:35Z</time>
      </trkpt>
      <trkpt lat="45.06503" lon="5.56543">
        <ele>1126.3199462891</ele>
        <time>2020-01-26T16:12:46Z</time>
      </trkpt>
      <trkpt lat="45.06519" lon="5.56518">
        <ele>1126.3199462891</ele>
        <time>2020-01-26T16:13:15Z</time>
      </trkpt>
      <trkpt lat="45.06528" lon="5.56495">
        <ele>1126.3199462891</ele>
        <time>2020-01-26T16:13:34Z</time>
      </trkpt>
      <trkpt lat="45.06532" lon="5.56481">
        <ele>1126.3199462891</ele>
        <time>2020-01-26T16:13:45Z</time>
      </trkpt>
      <trkpt lat="45.06537" lon="5.56466">
        <ele>1124.8800048828</ele>
        <time>2020-01-26T16:13:57Z</time>
      </trkpt>
      <trkpt lat="45.06543" lon="5.5645">
        <ele>1124.4000244141</ele>
        <time>2020-01-26T16:14:11Z</time>
      </trkpt>
      <trkpt lat="45.06547" lon="5.56431">
        <ele>1124.4000244141</ele>
        <time>2020-01-26T16:14:27Z</time>
      </trkpt>
      <trkpt lat="45.06551" lon="5.56415">
        <ele>1123.9200439453</ele>
        <time>2020-01-26T16:14:39Z</time>
      </trkpt>
      <trkpt lat="45.06557" lon="5.56393">
        <ele>1122.9599609375</ele>
        <time>2020-01-26T16:14:59Z</time>
      </trkpt>
      <trkpt lat="45.06559" lon="5.56375">
        <ele>1122.9599609375</ele>
        <time>2020-01-26T16:16:14Z</time>
      </trkpt>
      <trkpt lat="45.06562" lon="5.56358">
        <ele>1122.9599609375</ele>
        <time>2020-01-26T16:16:35Z</time>
      </trkpt>
      <trkpt lat="45.06564" lon="5.56341">
        <ele>1122.4799804688</ele>
        <time>2020-01-26T16:16:54Z</time>
      </trkpt>
      <trkpt lat="45.0657" lon="5.56314">
        <ele>1118.6300048828</ele>
        <time>2020-01-26T16:17:19Z</time>
      </trkpt>
      <trkpt lat="45.06569" lon="5.56282">
        <ele>1115.2700195312</ele>
        <time>2020-01-26T16:18:34Z</time>
      </trkpt>
      <trkpt lat="45.06574" lon="5.56241">
        <ele>1108.5400390625</ele>
        <time>2020-01-26T16:19:19Z</time>
      </trkpt>
      <trkpt lat="45.06583" lon="5.56205">
        <ele>1104.2099609375</ele>
        <time>2020-01-26T16:21:21Z</time>
      </trkpt>
      <trkpt lat="45.06587" lon="5.56192">
        <ele>1101.8100585938</ele>
        <time>2020-01-26T16:21:36Z</time>
      </trkpt>
      <trkpt lat="45.06591" lon="5.56181">
        <ele>1099.4000244141</ele>
        <time>2020-01-26T16:21:56Z</time>
      </trkpt>
      <trkpt lat="45.06598" lon="5.56159">
        <ele>1095.5600585938</ele>
        <time>2020-01-26T16:22:22Z</time>
      </trkpt>
      <trkpt lat="45.06598" lon="5.5614">
        <ele>1091.7099609375</ele>
        <time>2020-01-26T16:22:40Z</time>
      </trkpt>
      <trkpt lat="45.06597" lon="5.56127">
        <ele>1089.7900390625</ele>
        <time>2020-01-26T16:22:54Z</time>
      </trkpt>
      <trkpt lat="45.06597" lon="5.56113">
        <ele>1086.9100341797</ele>
        <time>2020-01-26T16:23:26Z</time>
      </trkpt>
      <trkpt lat="45.06603" lon="5.56101">
        <ele>1085.4699707031</ele>
        <time>2020-01-26T16:23:39Z</time>
      </trkpt>
      <trkpt lat="45.06619" lon="5.5608">
        <ele>1082.5799560547</ele>
        <time>2020-01-26T16:24:03Z</time>
      </trkpt>
      <trkpt lat="45.06628" lon="5.56075">
        <ele>1081.6199951172</ele>
        <time>2020-01-26T16:24:15Z</time>
      </trkpt>
      <trkpt lat="45.06636" lon="5.56068">
        <ele>1079.6999511719</ele>
        <time>2020-01-26T16:24:27Z</time>
      </trkpt>
      <trkpt lat="45.06643" lon="5.56057">
        <ele>1077.7800292969</ele>
        <time>2020-01-26T16:24:40Z</time>
      </trkpt>
      <trkpt lat="45.06643" lon="5.56044">
        <ele>1076.8100585938</ele>
        <time>2020-01-26T16:24:52Z</time>
      </trkpt>
      <trkpt lat="45.06634" lon="5.56039">
        <ele>1075.3699951172</ele>
        <time>2020-01-26T16:25:04Z</time>
      </trkpt>
      <trkpt lat="45.06624" lon="5.5604">
        <ele>1074.4100341797</ele>
        <time>2020-01-26T16:25:14Z</time>
      </trkpt>
      <trkpt lat="45.06614" lon="5.56042">
        <ele>1073.9300537109</ele>
        <time>2020-01-26T16:25:25Z</time>
      </trkpt>
      <trkpt lat="45.06604" lon="5.56049">
        <ele>1072.0100097656</ele>
        <time>2020-01-26T16:25:38Z</time>
      </trkpt>
      <trkpt lat="45.06589" lon="5.56061">
        <ele>1070.5699462891</ele>
        <time>2020-01-26T16:25:53Z</time>
      </trkpt>
      <trkpt lat="45.0658" lon="5.56068">
        <ele>1070.0799560547</ele>
        <time>2020-01-26T16:26:04Z</time>
      </trkpt>
      <trkpt lat="45.06571" lon="5.56076">
        <ele>1069.1199951172</ele>
        <time>2020-01-26T16:26:15Z</time>
      </trkpt>
      <trkpt lat="45.06559" lon="5.56085">
        <ele>1066.7199707031</ele>
        <time>2020-01-26T16:27:00Z</time>
      </trkpt>
      <trkpt lat="45.06544" lon="5.56091">
        <ele>1064.8000488281</ele>
        <time>2020-01-26T16:27:17Z</time>
      </trkpt>
      <trkpt lat="45.06535" lon="5.56096">
        <ele>1063.3599853516</ele>
        <time>2020-01-26T16:27:29Z</time>
      </trkpt>
      <trkpt lat="45.06526" lon="5.56095">
        <ele>1061.9100341797</ele>
        <time>2020-01-26T16:27:39Z</time>
      </trkpt>
      <trkpt lat="45.06518" lon="5.56092">
        <ele>1060.9499511719</ele>
        <time>2020-01-26T16:27:48Z</time>
      </trkpt>
      <trkpt lat="45.06512" lon="5.56087">
        <ele>1059.0300292969</ele>
        <time>2020-01-26T16:28:06Z</time>
      </trkpt>
      <trkpt lat="45.06521" lon="5.56079">
        <ele>1058.5500488281</ele>
        <time>2020-01-26T16:28:20Z</time>
      </trkpt>
      <trkpt lat="45.06528" lon="5.56071">
        <ele>1058.0699462891</ele>
        <time>2020-01-26T16:28:31Z</time>
      </trkpt>
      <trkpt lat="45.06536" lon="5.56062">
        <ele>1057.5899658203</ele>
        <time>2020-01-26T16:28:42Z</time>
      </trkpt>
      <trkpt lat="45.06565" lon="5.56015">
        <ele>1054.6999511719</ele>
        <time>2020-01-26T16:29:29Z</time>
      </trkpt>
      <trkpt lat="45.0657" lon="5.56">
        <ele>1054.6999511719</ele>
        <time>2020-01-26T16:29:39Z</time>
      </trkpt>
      <trkpt lat="45.06577" lon="5.5599">
        <ele>1054.6999511719</ele>
        <time>2020-01-26T16:29:50Z</time>
      </trkpt>
      <trkpt lat="45.06588" lon="5.55988">
        <ele>1054.2199707031</ele>
        <time>2020-01-26T16:30:02Z</time>
      </trkpt>
      <trkpt lat="45.06599" lon="5.55985">
        <ele>1052.3000488281</ele>
        <time>2020-01-26T16:30:14Z</time>
      </trkpt>
      <trkpt lat="45.06607" lon="5.55976">
        <ele>1050.8599853516</ele>
        <time>2020-01-26T16:30:25Z</time>
      </trkpt>
      <trkpt lat="45.06613" lon="5.55964">
        <ele>1048.9399414062</ele>
        <time>2020-01-26T16:30:37Z</time>
      </trkpt>
      <trkpt lat="45.06614" lon="5.55947">
        <ele>1047.4899902344</ele>
        <time>2020-01-26T16:31:05Z</time>
      </trkpt>
      <trkpt lat="45.0662" lon="5.55937">
        <ele>1045.0899658203</ele>
        <time>2020-01-26T16:31:16Z</time>
      </trkpt>
      <trkpt lat="45.06625" lon="5.55926">
        <ele>1043.6500244141</ele>
        <time>2020-01-26T16:31:27Z</time>
      </trkpt>
      <trkpt lat="45.06626" lon="5.55911">
        <ele>1042.2099609375</ele>
        <time>2020-01-26T16:31:38Z</time>
      </trkpt>
      <trkpt lat="45.06632" lon="5.55894">
        <ele>1040.2800292969</ele>
        <time>2020-01-26T16:32:50Z</time>
      </trkpt>
      <trkpt lat="45.06637" lon="5.55882">
        <ele>1038.3599853516</ele>
        <time>2020-01-26T16:32:59Z</time>
      </trkpt>
      <trkpt lat="45.06644" lon="5.55869">
        <ele>1036.9200439453</ele>
        <time>2020-01-26T16:33:09Z</time>
      </trkpt>
      <trkpt lat="45.06655" lon="5.55855">
        <ele>1034.0400390625</ele>
        <time>2020-01-26T16:33:30Z</time>
      </trkpt>
      <trkpt lat="45.06646" lon="5.55849">
        <ele>1033.5500488281</ele>
        <time>2020-01-26T16:33:41Z</time>
      </trkpt>
      <trkpt lat="45.06636" lon="5.55844">
        <ele>1032.5899658203</ele>
        <time>2020-01-26T16:33:52Z</time>
      </trkpt>
      <trkpt lat="45.06625" lon="5.55838">
        <ele>1031.6300048828</ele>
        <time>2020-01-26T16:34:04Z</time>
      </trkpt>
      <trkpt lat="45.06614" lon="5.55834">
        <ele>1031.1500244141</ele>
        <time>2020-01-26T16:34:16Z</time>
      </trkpt>
      <trkpt lat="45.06604" lon="5.55832">
        <ele>1030.1899414062</ele>
        <time>2020-01-26T16:34:27Z</time>
      </trkpt>
      <trkpt lat="45.06588" lon="5.55826">
        <ele>1029.2299804688</ele>
        <time>2020-01-26T16:34:57Z</time>
      </trkpt>
      <trkpt lat="45.06578" lon="5.55822">
        <ele>1028.2700195312</ele>
        <time>2020-01-26T16:35:08Z</time>
      </trkpt>
      <trkpt lat="45.06568" lon="5.55817">
        <ele>1027.7900390625</ele>
        <time>2020-01-26T16:35:20Z</time>
      </trkpt>
      <trkpt lat="45.06557" lon="5.55813">
        <ele>1027.3100585938</ele>
        <time>2020-01-26T16:35:32Z</time>
      </trkpt>
      <trkpt lat="45.06546" lon="5.55808">
        <ele>1026.8299560547</ele>
        <time>2020-01-26T16:35:43Z</time>
      </trkpt>
      <trkpt lat="45.06535" lon="5.55801">
        <ele>1026.8299560547</ele>
        <time>2020-01-26T16:35:56Z</time>
      </trkpt>
      <trkpt lat="45.06528" lon="5.55791">
        <ele>1025.8599853516</ele>
        <time>2020-01-26T16:36:07Z</time>
      </trkpt>
      <trkpt lat="45.0652" lon="5.55746">
        <ele>1024.9000244141</ele>
        <time>2020-01-26T16:36:36Z</time>
      </trkpt>
      <trkpt lat="45.06527" lon="5.55732">
        <ele>1026.8299560547</ele>
        <time>2020-01-26T16:36:47Z</time>
      </trkpt>
      <trkpt lat="45.06529" lon="5.5572">
        <ele>1027.3100585938</ele>
        <time>2020-01-26T16:36:57Z</time>
      </trkpt>
      <trkpt lat="45.06532" lon="5.55707">
        <ele>1028.2700195312</ele>
        <time>2020-01-26T16:37:07Z</time>
      </trkpt>
      <trkpt lat="45.06536" lon="5.55693">
        <ele>1028.2700195312</ele>
        <time>2020-01-26T16:37:18Z</time>
      </trkpt>
      <trkpt lat="45.06534" lon="5.55679">
        <ele>1028.75</ele>
        <time>2020-01-26T16:37:27Z</time>
      </trkpt>
      <trkpt lat="45.06528" lon="5.55667">
        <ele>1029.2299804688</ele>
        <time>2020-01-26T16:37:37Z</time>
      </trkpt>
      <trkpt lat="45.0652" lon="5.55656">
        <ele>1029.7099609375</ele>
        <time>2020-01-26T16:37:48Z</time>
      </trkpt>
      <trkpt lat="45.06511" lon="5.55649">
        <ele>1029.7099609375</ele>
        <time>2020-01-26T16:38:02Z</time>
      </trkpt>
      <trkpt lat="45.06504" lon="5.55643">
        <ele>1029.7099609375</ele>
        <time>2020-01-26T16:38:27Z</time>
      </trkpt>
      <trkpt lat="45.06493" lon="5.55643">
        <ele>1031.1500244141</ele>
        <time>2020-01-26T16:38:41Z</time>
      </trkpt>
      <trkpt lat="45.06483" lon="5.55641">
        <ele>1031.6300048828</ele>
        <time>2020-01-26T16:39:13Z</time>
      </trkpt>
      <trkpt lat="45.06475" lon="5.55628">
        <ele>1032.1099853516</ele>
        <time>2020-01-26T16:39:33Z</time>
      </trkpt>
      <trkpt lat="45.06466" lon="5.55622">
        <ele>1032.1099853516</ele>
        <time>2020-01-26T16:40:54Z</time>
      </trkpt>
      <trkpt lat="45.06469" lon="5.55616">
        <ele>1031.6300048828</ele>
        <time>2020-01-26T16:42:18Z</time>
      </trkpt>
    </trkseg>
  </trk>
</gpx>